sensor_id;sensor_type;location;lat;lon;timestamp;P1;durP1;ratioP1;P2;durP2;ratioP2
19095;SDS011;9680;52.520;13.332;2023-08-20T00:01:11;16.40;;;11.80;;
19095;SDS011;9680;52.520;13.332;2023-08-20T00:03:41;17.48;;;12.77;;
19095;SDS011;9680;52.520;13.332;2023-08-20T00:06:09;19.17;;;12.30;;
19095;SDS011;9680;52.520;13.332;2023-08-20T00:08:36;17.02;;;11.88;;
19095;SDS011;9680;52.520;13.332;2023-08-20T00:11:04;18.75;;;12.38;;
19095;SDS011;9680;52.520;13.332;2023-08-20T00:13:31;20.40;;;12.68;;
19095;SDS011;9680;52.520;13.332;2023-08-20T00:15:57;20.67;;;12.60;;
19095;SDS011;9680;52.520;13.332;2023-08-20T00:18:24;17.10;;;12.30;;
19095;SDS011;9680;52.520;13.332;2023-08-20T00:20:52;19.15;;;12.32;;
19095;SDS011;9680;52.520;13.332;2023-08-20T00:23:20;17.58;;;11.90;;
19095;SDS011;9680;52.520;13.332;2023-08-20T00:25:47;16.13;;;11.88;;
19095;SDS011;9680;52.520;13.332;2023-08-20T00:28:15;17.30;;;12.55;;
19095;SDS011;9680;52.520;13.332;2023-08-20T00:30:42;24.98;;;12.35;;
19095;SDS011;9680;52.520;13.332;2023-08-20T00:33:09;17.70;;;12.20;;
19095;SDS011;9680;52.520;13.332;2023-08-20T00:35:36;17.13;;;12.15;;
19095;SDS011;9680;52.520;13.332;2023-08-20T00:38:03;19.73;;;12.63;;
19095;SDS011;9680;52.520;13.332;2023-08-20T00:40:32;18.80;;;12.95;;
19095;SDS011;9680;52.520;13.332;2023-08-20T00:42:58;18.60;;;12.77;;
19095;SDS011;9680;52.520;13.332;2023-08-20T00:45:27;18.83;;;12.52;;
19095;SDS011;9680;52.520;13.332;2023-08-20T00:47:55;16.85;;;12.13;;
19095;SDS011;9680;52.520;13.332;2023-08-20T00:50:23;17.85;;;11.50;;
19095;SDS011;9680;52.520;13.332;2023-08-20T00:52:50;21.00;;;11.40;;
19095;SDS011;9680;52.520;13.332;2023-08-20T00:55:16;17.45;;;11.45;;
19095;SDS011;9680;52.520;13.332;2023-08-20T00:57:43;26.80;;;11.23;;
19095;SDS011;9680;52.520;13.332;2023-08-20T01:00:10;16.63;;;11.30;;
19095;SDS011;9680;52.520;13.332;2023-08-20T01:02:39;18.63;;;11.38;;
19095;SDS011;9680;52.520;13.332;2023-08-20T01:05:07;18.63;;;11.25;;
19095;SDS011;9680;52.520;13.332;2023-08-20T01:07:39;18.40;;;11.25;;
19095;SDS011;9680;52.520;13.332;2023-08-20T01:10:27;19.63;;;11.80;;
19095;SDS011;9680;52.520;13.332;2023-08-20T01:13:00;17.55;;;11.00;;
19095;SDS011;9680;52.520;13.332;2023-08-20T01:15:29;19.02;;;10.90;;
19095;SDS011;9680;52.520;13.332;2023-08-20T01:17:57;20.00;;;11.60;;
19095;SDS011;9680;52.520;13.332;2023-08-20T01:20:25;17.23;;;11.27;;
19095;SDS011;9680;52.520;13.332;2023-08-20T01:23:06;15.77;;;10.93;;
19095;SDS011;9680;52.520;13.332;2023-08-20T01:25:57;19.95;;;11.63;;
19095;SDS011;9680;52.520;13.332;2023-08-20T01:28:35;15.30;;;10.88;;
19095;SDS011;9680;52.520;13.332;2023-08-20T01:31:04;18.77;;;10.75;;
19095;SDS011;9680;52.520;13.332;2023-08-20T01:33:32;15.57;;;10.95;;
19095;SDS011;9680;52.520;13.332;2023-08-20T01:35:59;19.88;;;11.63;;
19095;SDS011;9680;52.520;13.332;2023-08-20T01:38:26;18.67;;;10.98;;
19095;SDS011;9680;52.520;13.332;2023-08-20T01:40:53;17.80;;;10.95;;
19095;SDS011;9680;52.520;13.332;2023-08-20T01:43:21;16.65;;;11.27;;
19095;SDS011;9680;52.520;13.332;2023-08-20T01:45:49;18.52;;;11.00;;
19095;SDS011;9680;52.520;13.332;2023-08-20T01:48:16;17.85;;;10.80;;
19095;SDS011;9680;52.520;13.332;2023-08-20T01:50:42;17.02;;;11.00;;
19095;SDS011;9680;52.520;13.332;2023-08-20T01:53:09;15.15;;;10.70;;
19095;SDS011;9680;52.520;13.332;2023-08-20T01:55:36;17.58;;;11.50;;
19095;SDS011;9680;52.520;13.332;2023-08-20T01:58:03;17.00;;;11.02;;
19095;SDS011;9680;52.520;13.332;2023-08-20T02:00:30;19.73;;;10.90;;
19095;SDS011;9680;52.520;13.332;2023-08-20T02:03:00;22.15;;;11.40;;
19095;SDS011;9680;52.520;13.332;2023-08-20T02:05:27;16.80;;;11.10;;
19095;SDS011;9680;52.520;13.332;2023-08-20T02:07:54;18.67;;;10.85;;
19095;SDS011;9680;52.520;13.332;2023-08-20T02:10:20;18.05;;;11.10;;
19095;SDS011;9680;52.520;13.332;2023-08-20T02:12:47;15.30;;;10.68;;
19095;SDS011;9680;52.520;13.332;2023-08-20T02:15:15;19.15;;;11.18;;
19095;SDS011;9680;52.520;13.332;2023-08-20T02:17:42;16.98;;;10.93;;
19095;SDS011;9680;52.520;13.332;2023-08-20T02:20:10;24.67;;;11.00;;
19095;SDS011;9680;52.520;13.332;2023-08-20T02:22:37;16.40;;;10.38;;
19095;SDS011;9680;52.520;13.332;2023-08-20T02:25:04;16.88;;;10.57;;
19095;SDS011;9680;52.520;13.332;2023-08-20T02:27:30;16.02;;;10.40;;
19095;SDS011;9680;52.520;13.332;2023-08-20T02:29:57;22.80;;;10.50;;
19095;SDS011;9680;52.520;13.332;2023-08-20T02:32:24;15.63;;;10.35;;
19095;SDS011;9680;52.520;13.332;2023-08-20T02:34:50;14.73;;;10.30;;
19095;SDS011;9680;52.520;13.332;2023-08-20T02:37:18;14.68;;;10.00;;
19095;SDS011;9680;52.520;13.332;2023-08-20T02:39:45;17.90;;;9.77;;
19095;SDS011;9680;52.520;13.332;2023-08-20T02:42:12;18.90;;;9.40;;
19095;SDS011;9680;52.520;13.332;2023-08-20T02:44:38;14.13;;;9.38;;
19095;SDS011;9680;52.520;13.332;2023-08-20T02:47:05;17.73;;;9.68;;
19095;SDS011;9680;52.520;13.332;2023-08-20T02:49:32;16.58;;;9.30;;
19095;SDS011;9680;52.520;13.332;2023-08-20T02:51:59;15.88;;;8.45;;
19095;SDS011;9680;52.520;13.332;2023-08-20T02:54:27;13.63;;;9.07;;
19095;SDS011;9680;52.520;13.332;2023-08-20T02:56:54;16.38;;;9.05;;
19095;SDS011;9680;52.520;13.332;2023-08-20T02:59:21;14.95;;;9.52;;
19095;SDS011;9680;52.520;13.332;2023-08-20T03:01:48;14.10;;;9.48;;
19095;SDS011;9680;52.520;13.332;2023-08-20T03:04:14;16.02;;;8.90;;
19095;SDS011;9680;52.520;13.332;2023-08-20T03:06:41;15.65;;;9.43;;
19095;SDS011;9680;52.520;13.332;2023-08-20T03:09:09;37.28;;;9.57;;
19095;SDS011;9680;52.520;13.332;2023-08-20T03:11:37;14.90;;;9.07;;
19095;SDS011;9680;52.520;13.332;2023-08-20T03:14:04;15.90;;;9.60;;
19095;SDS011;9680;52.520;13.332;2023-08-20T03:16:30;13.98;;;8.68;;
19095;SDS011;9680;52.520;13.332;2023-08-20T03:18:57;16.08;;;9.05;;
19095;SDS011;9680;52.520;13.332;2023-08-20T03:21:24;18.48;;;9.77;;
19095;SDS011;9680;52.520;13.332;2023-08-20T03:23:50;17.67;;;9.55;;
19095;SDS011;9680;52.520;13.332;2023-08-20T03:26:17;15.20;;;8.70;;
19095;SDS011;9680;52.520;13.332;2023-08-20T03:28:45;15.88;;;8.98;;
19095;SDS011;9680;52.520;13.332;2023-08-20T03:31:12;15.23;;;9.43;;
19095;SDS011;9680;52.520;13.332;2023-08-20T03:33:41;16.83;;;9.80;;
19095;SDS011;9680;52.520;13.332;2023-08-20T03:36:07;16.27;;;9.25;;
19095;SDS011;9680;52.520;13.332;2023-08-20T03:38:34;16.25;;;9.82;;
19095;SDS011;9680;52.520;13.332;2023-08-20T03:41:01;16.65;;;9.57;;
19095;SDS011;9680;52.520;13.332;2023-08-20T03:43:28;19.02;;;9.80;;
19095;SDS011;9680;52.520;13.332;2023-08-20T03:45:56;14.52;;;9.27;;
19095;SDS011;9680;52.520;13.332;2023-08-20T03:48:23;15.90;;;9.35;;
19095;SDS011;9680;52.520;13.332;2023-08-20T03:50:51;19.25;;;9.90;;
19095;SDS011;9680;52.520;13.332;2023-08-20T03:53:17;17.15;;;9.95;;
19095;SDS011;9680;52.520;13.332;2023-08-20T03:55:47;16.40;;;9.38;;
19095;SDS011;9680;52.520;13.332;2023-08-20T03:58:14;18.17;;;9.40;;
19095;SDS011;9680;52.520;13.332;2023-08-20T04:00:42;14.35;;;8.85;;
19095;SDS011;9680;52.520;13.332;2023-08-20T04:03:11;17.45;;;10.20;;
19095;SDS011;9680;52.520;13.332;2023-08-20T04:05:38;17.35;;;9.18;;
19095;SDS011;9680;52.520;13.332;2023-08-20T04:08:05;18.95;;;10.27;;
19095;SDS011;9680;52.520;13.332;2023-08-20T04:10:32;16.38;;;9.88;;
19095;SDS011;9680;52.520;13.332;2023-08-20T04:12:59;19.88;;;10.13;;
19095;SDS011;9680;52.520;13.332;2023-08-20T04:15:26;19.35;;;10.63;;
19095;SDS011;9680;52.520;13.332;2023-08-20T04:17:53;17.60;;;10.38;;
19095;SDS011;9680;52.520;13.332;2023-08-20T04:20:21;21.40;;;10.32;;
19095;SDS011;9680;52.520;13.332;2023-08-20T04:22:48;16.60;;;10.10;;
19095;SDS011;9680;52.520;13.332;2023-08-20T04:25:15;18.88;;;10.48;;
19095;SDS011;9680;52.520;13.332;2023-08-20T04:27:41;15.80;;;9.85;;
19095;SDS011;9680;52.520;13.332;2023-08-20T04:30:09;20.48;;;10.02;;
19095;SDS011;9680;52.520;13.332;2023-08-20T04:32:36;18.63;;;10.43;;
19095;SDS011;9680;52.520;13.332;2023-08-20T04:35:03;17.45;;;10.10;;
19095;SDS011;9680;52.520;13.332;2023-08-20T04:37:33;20.35;;;10.48;;
19095;SDS011;9680;52.520;13.332;2023-08-20T04:40:00;17.38;;;10.80;;
19095;SDS011;9680;52.520;13.332;2023-08-20T04:42:29;20.48;;;11.27;;
19095;SDS011;9680;52.520;13.332;2023-08-20T04:44:56;19.15;;;11.60;;
19095;SDS011;9680;52.520;13.332;2023-08-20T04:47:24;20.25;;;11.02;;
19095;SDS011;9680;52.520;13.332;2023-08-20T04:49:51;20.85;;;10.65;;
19095;SDS011;9680;52.520;13.332;2023-08-20T04:52:18;20.27;;;11.00;;
19095;SDS011;9680;52.520;13.332;2023-08-20T04:54:47;20.35;;;11.18;;
19095;SDS011;9680;52.520;13.332;2023-08-20T04:57:15;20.67;;;11.70;;
19095;SDS011;9680;52.520;13.332;2023-08-20T04:59:42;18.00;;;11.13;;
19095;SDS011;9680;52.520;13.332;2023-08-20T05:02:21;16.50;;;11.27;;
19095;SDS011;9680;52.520;13.332;2023-08-20T05:04:53;20.13;;;11.73;;
19095;SDS011;9680;52.520;13.332;2023-08-20T05:07:20;20.15;;;11.48;;
19095;SDS011;9680;52.520;13.332;2023-08-20T05:09:49;21.40;;;11.88;;
19095;SDS011;9680;52.520;13.332;2023-08-20T05:12:16;20.27;;;11.70;;
19095;SDS011;9680;52.520;13.332;2023-08-20T05:14:43;21.58;;;12.57;;
19095;SDS011;9680;52.520;13.332;2023-08-20T05:17:10;21.40;;;12.25;;
19095;SDS011;9680;52.520;13.332;2023-08-20T05:19:37;17.92;;;11.50;;
19095;SDS011;9680;52.520;13.332;2023-08-20T05:22:03;19.05;;;11.40;;
19095;SDS011;9680;52.520;13.332;2023-08-20T05:24:33;19.17;;;12.02;;
19095;SDS011;9680;52.520;13.332;2023-08-20T05:27:05;23.92;;;12.00;;
19095;SDS011;9680;52.520;13.332;2023-08-20T05:29:33;17.92;;;11.73;;
19095;SDS011;9680;52.520;13.332;2023-08-20T05:32:00;22.73;;;12.52;;
19095;SDS011;9680;52.520;13.332;2023-08-20T05:34:27;21.10;;;11.93;;
19095;SDS011;9680;52.520;13.332;2023-08-20T05:36:54;21.88;;;12.35;;
19095;SDS011;9680;52.520;13.332;2023-08-20T05:39:21;22.48;;;11.70;;
19095;SDS011;9680;52.520;13.332;2023-08-20T05:41:48;21.25;;;11.98;;
19095;SDS011;9680;52.520;13.332;2023-08-20T05:44:16;19.30;;;12.07;;
19095;SDS011;9680;52.520;13.332;2023-08-20T05:46:43;20.95;;;12.48;;
19095;SDS011;9680;52.520;13.332;2023-08-20T05:49:12;22.02;;;13.15;;
19095;SDS011;9680;52.520;13.332;2023-08-20T05:51:39;19.40;;;12.05;;
19095;SDS011;9680;52.520;13.332;2023-08-20T05:54:06;20.52;;;12.00;;
19095;SDS011;9680;52.520;13.332;2023-08-20T05:56:32;18.55;;;12.05;;
19095;SDS011;9680;52.520;13.332;2023-08-20T05:58:59;20.48;;;11.90;;
19095;SDS011;9680;52.520;13.332;2023-08-20T06:01:28;20.63;;;12.38;;
19095;SDS011;9680;52.520;13.332;2023-08-20T06:03:55;20.75;;;11.77;;
19095;SDS011;9680;52.520;13.332;2023-08-20T06:06:21;25.30;;;12.27;;
19095;SDS011;9680;52.520;13.332;2023-08-20T06:08:48;22.23;;;11.90;;
19095;SDS011;9680;52.520;13.332;2023-08-20T06:11:15;19.92;;;12.00;;
19095;SDS011;9680;52.520;13.332;2023-08-20T06:13:41;20.33;;;11.52;;
19095;SDS011;9680;52.520;13.332;2023-08-20T06:16:08;24.75;;;12.95;;
19095;SDS011;9680;52.520;13.332;2023-08-20T06:18:36;22.25;;;12.73;;
19095;SDS011;9680;52.520;13.332;2023-08-20T06:21:03;20.85;;;11.85;;
19095;SDS011;9680;52.520;13.332;2023-08-20T06:23:30;21.65;;;12.05;;
19095;SDS011;9680;52.520;13.332;2023-08-20T06:25:57;19.55;;;12.07;;
19095;SDS011;9680;52.520;13.332;2023-08-20T06:28:26;20.45;;;12.55;;
19095;SDS011;9680;52.520;13.332;2023-08-20T06:30:53;21.50;;;12.40;;
19095;SDS011;9680;52.520;13.332;2023-08-20T06:33:20;20.73;;;11.70;;
19095;SDS011;9680;52.520;13.332;2023-08-20T06:35:48;20.42;;;11.95;;
19095;SDS011;9680;52.520;13.332;2023-08-20T06:38:14;22.23;;;12.65;;
19095;SDS011;9680;52.520;13.332;2023-08-20T06:40:41;19.98;;;11.80;;
19095;SDS011;9680;52.520;13.332;2023-08-20T06:43:08;20.48;;;11.90;;
19095;SDS011;9680;52.520;13.332;2023-08-20T06:45:34;17.77;;;10.93;;
19095;SDS011;9680;52.520;13.332;2023-08-20T06:48:01;19.90;;;11.75;;
19095;SDS011;9680;52.520;13.332;2023-08-20T06:50:28;20.33;;;11.50;;
19095;SDS011;9680;52.520;13.332;2023-08-20T06:52:56;16.95;;;10.93;;
19095;SDS011;9680;52.520;13.332;2023-08-20T06:55:22;16.50;;;10.32;;
19095;SDS011;9680;52.520;13.332;2023-08-20T06:57:49;21.13;;;10.35;;
19095;SDS011;9680;52.520;13.332;2023-08-20T07:00:16;21.40;;;10.13;;
19095;SDS011;9680;52.520;13.332;2023-08-20T07:02:44;21.63;;;11.60;;
19095;SDS011;9680;52.520;13.332;2023-08-20T07:05:11;18.63;;;10.68;;
19095;SDS011;9680;52.520;13.332;2023-08-20T07:07:38;18.63;;;10.48;;
19095;SDS011;9680;52.520;13.332;2023-08-20T07:10:07;19.88;;;9.90;;
19095;SDS011;9680;52.520;13.332;2023-08-20T07:12:34;17.13;;;9.95;;
19095;SDS011;9680;52.520;13.332;2023-08-20T07:15:00;20.23;;;10.27;;
19095;SDS011;9680;52.520;13.332;2023-08-20T07:17:29;18.38;;;10.32;;
19095;SDS011;9680;52.520;13.332;2023-08-20T07:19:55;17.60;;;9.45;;
19095;SDS011;9680;52.520;13.332;2023-08-20T07:22:22;16.17;;;8.70;;
19095;SDS011;9680;52.520;13.332;2023-08-20T07:24:48;18.55;;;9.63;;
19095;SDS011;9680;52.520;13.332;2023-08-20T07:27:17;18.88;;;10.07;;
19095;SDS011;9680;52.520;13.332;2023-08-20T07:29:43;18.45;;;9.68;;
19095;SDS011;9680;52.520;13.332;2023-08-20T07:32:09;14.43;;;8.73;;
19095;SDS011;9680;52.520;13.332;2023-08-20T07:34:36;18.58;;;8.63;;
19095;SDS011;9680;52.520;13.332;2023-08-20T07:37:03;17.17;;;9.65;;
19095;SDS011;9680;52.520;13.332;2023-08-20T07:39:30;14.93;;;9.10;;
19095;SDS011;9680;52.520;13.332;2023-08-20T07:41:56;16.63;;;9.82;;
19095;SDS011;9680;52.520;13.332;2023-08-20T07:44:24;19.40;;;10.32;;
19095;SDS011;9680;52.520;13.332;2023-08-20T07:46:51;19.10;;;10.77;;
19095;SDS011;9680;52.520;13.332;2023-08-20T07:49:18;17.98;;;10.60;;
19095;SDS011;9680;52.520;13.332;2023-08-20T07:51:44;17.05;;;10.20;;
19095;SDS011;9680;52.520;13.332;2023-08-20T07:54:11;16.65;;;10.27;;
19095;SDS011;9680;52.520;13.332;2023-08-20T07:56:38;16.38;;;10.40;;
19095;SDS011;9680;52.520;13.332;2023-08-20T07:59:05;17.75;;;10.27;;
19095;SDS011;9680;52.520;13.332;2023-08-20T08:01:33;17.13;;;9.63;;
19095;SDS011;9680;52.520;13.332;2023-08-20T08:03:59;18.35;;;10.23;;
19095;SDS011;9680;52.520;13.332;2023-08-20T08:06:26;14.00;;;8.60;;
19095;SDS011;9680;52.520;13.332;2023-08-20T08:08:53;13.82;;;8.90;;
19095;SDS011;9680;52.520;13.332;2023-08-20T08:11:19;12.60;;;8.02;;
19095;SDS011;9680;52.520;13.332;2023-08-20T08:13:46;16.33;;;8.55;;
19095;SDS011;9680;52.520;13.332;2023-08-20T08:16:13;13.23;;;7.85;;
19095;SDS011;9680;52.520;13.332;2023-08-20T08:18:41;13.50;;;8.00;;
19095;SDS011;9680;52.520;13.332;2023-08-20T08:21:07;13.20;;;8.15;;
19095;SDS011;9680;52.520;13.332;2023-08-20T08:23:34;12.60;;;7.22;;
19095;SDS011;9680;52.520;13.332;2023-08-20T08:26:01;12.98;;;7.60;;
19095;SDS011;9680;52.520;13.332;2023-08-20T08:28:28;11.90;;;7.57;;
19095;SDS011;9680;52.520;13.332;2023-08-20T08:30:54;13.15;;;6.63;;
19095;SDS011;9680;52.520;13.332;2023-08-20T08:33:21;10.02;;;6.60;;
19095;SDS011;9680;52.520;13.332;2023-08-20T08:35:50;12.85;;;6.70;;
19095;SDS011;9680;52.520;13.332;2023-08-20T08:38:17;11.35;;;6.38;;
19095;SDS011;9680;52.520;13.332;2023-08-20T08:40:43;9.73;;;5.93;;
19095;SDS011;9680;52.520;13.332;2023-08-20T08:43:11;10.70;;;5.40;;
19095;SDS011;9680;52.520;13.332;2023-08-20T08:45:42;8.15;;;5.38;;
19095;SDS011;9680;52.520;13.332;2023-08-20T08:48:12;11.23;;;5.90;;
19095;SDS011;9680;52.520;13.332;2023-08-20T08:50:39;9.40;;;6.00;;
19095;SDS011;9680;52.520;13.332;2023-08-20T08:53:07;8.40;;;5.55;;
19095;SDS011;9680;52.520;13.332;2023-08-20T08:55:34;11.27;;;5.28;;
19095;SDS011;9680;52.520;13.332;2023-08-20T08:58:02;8.27;;;5.22;;
19095;SDS011;9680;52.520;13.332;2023-08-20T09:00:29;9.82;;;5.30;;
19095;SDS011;9680;52.520;13.332;2023-08-20T09:02:59;13.98;;;5.13;;
19095;SDS011;9680;52.520;13.332;2023-08-20T09:05:26;8.55;;;6.22;;
19095;SDS011;9680;52.520;13.332;2023-08-20T09:07:54;8.48;;;5.55;;
19095;SDS011;9680;52.520;13.332;2023-08-20T09:10:26;7.88;;;4.90;;
19095;SDS011;9680;52.520;13.332;2023-08-20T09:12:54;8.75;;;4.88;;
19095;SDS011;9680;52.520;13.332;2023-08-20T09:15:21;9.18;;;4.85;;
19095;SDS011;9680;52.520;13.332;2023-08-20T09:17:56;5.90;;;4.15;;
19095;SDS011;9680;52.520;13.332;2023-08-20T09:20:33;6.72;;;4.10;;
19095;SDS011;9680;52.520;13.332;2023-08-20T09:23:00;7.25;;;3.92;;
19095;SDS011;9680;52.520;13.332;2023-08-20T09:25:28;6.82;;;4.72;;
19095;SDS011;9680;52.520;13.332;2023-08-20T09:27:55;5.97;;;4.22;;
19095;SDS011;9680;52.520;13.332;2023-08-20T09:30:22;8.10;;;4.78;;
19095;SDS011;9680;52.520;13.332;2023-08-20T09:33:02;7.53;;;4.72;;
19095;SDS011;9680;52.520;13.332;2023-08-20T09:35:29;8.10;;;4.35;;
19095;SDS011;9680;52.520;13.332;2023-08-20T09:37:58;6.05;;;4.07;;
19095;SDS011;9680;52.520;13.332;2023-08-20T09:40:26;8.35;;;4.20;;
19095;SDS011;9680;52.520;13.332;2023-08-20T09:42:55;7.57;;;4.10;;
19095;SDS011;9680;52.520;13.332;2023-08-20T09:45:22;5.75;;;4.00;;
19095;SDS011;9680;52.520;13.332;2023-08-20T09:47:50;6.97;;;4.00;;
19095;SDS011;9680;52.520;13.332;2023-08-20T09:50:20;4.57;;;3.20;;
19095;SDS011;9680;52.520;13.332;2023-08-20T09:52:52;5.13;;;3.08;;
19095;SDS011;9680;52.520;13.332;2023-08-20T09:55:26;10.43;;;3.85;;
19095;SDS011;9680;52.520;13.332;2023-08-20T09:57:59;4.60;;;3.42;;
19095;SDS011;9680;52.520;13.332;2023-08-20T10:00:27;5.75;;;3.25;;
19095;SDS011;9680;52.520;13.332;2023-08-20T10:02:54;4.68;;;2.63;;
19095;SDS011;9680;52.520;13.332;2023-08-20T10:05:22;4.93;;;2.42;;
19095;SDS011;9680;52.520;13.332;2023-08-20T10:07:49;4.80;;;2.95;;
19095;SDS011;9680;52.520;13.332;2023-08-20T10:10:16;6.93;;;3.05;;
19095;SDS011;9680;52.520;13.332;2023-08-20T10:12:45;7.43;;;3.50;;
19095;SDS011;9680;52.520;13.332;2023-08-20T10:15:13;4.72;;;3.08;;
19095;SDS011;9680;52.520;13.332;2023-08-20T10:17:41;4.10;;;2.28;;
19095;SDS011;9680;52.520;13.332;2023-08-20T10:20:12;3.38;;;2.40;;
19095;SDS011;9680;52.520;13.332;2023-08-20T10:22:41;2.63;;;1.98;;
19095;SDS011;9680;52.520;13.332;2023-08-20T10:25:09;5.68;;;2.35;;
19095;SDS011;9680;52.520;13.332;2023-08-20T10:27:38;3.88;;;2.35;;
19095;SDS011;9680;52.520;13.332;2023-08-20T10:30:09;4.20;;;2.25;;
19095;SDS011;9680;52.520;13.332;2023-08-20T10:32:44;5.10;;;2.22;;
19095;SDS011;9680;52.520;13.332;2023-08-20T10:35:12;2.70;;;2.10;;
19095;SDS011;9680;52.520;13.332;2023-08-20T10:37:40;3.75;;;2.30;;
19095;SDS011;9680;52.520;13.332;2023-08-20T10:43:23;4.03;;;2.25;;
19095;SDS011;9680;52.520;13.332;2023-08-20T10:48:43;4.95;;;2.50;;
19095;SDS011;9680;52.520;13.332;2023-08-20T10:51:13;5.60;;;2.70;;
19095;SDS011;9680;52.520;13.332;2023-08-20T10:53:40;4.55;;;2.80;;
19095;SDS011;9680;52.520;13.332;2023-08-20T10:56:13;4.65;;;2.35;;
19095;SDS011;9680;52.520;13.332;2023-08-20T10:58:41;5.18;;;2.42;;
19095;SDS011;9680;52.520;13.332;2023-08-20T11:01:17;6.00;;;2.60;;
19095;SDS011;9680;52.520;13.332;2023-08-20T11:03:46;12.43;;;7.53;;
19095;SDS011;9680;52.520;13.332;2023-08-20T11:06:14;4.32;;;2.45;;
19095;SDS011;9680;52.520;13.332;2023-08-20T11:08:42;4.93;;;2.50;;
19095;SDS011;9680;52.520;13.332;2023-08-20T11:11:09;3.65;;;2.10;;
19095;SDS011;9680;52.520;13.332;2023-08-20T11:13:37;4.63;;;2.38;;
19095;SDS011;9680;52.520;13.332;2023-08-20T11:16:04;3.65;;;2.47;;
19095;SDS011;9680;52.520;13.332;2023-08-20T11:18:34;3.92;;;2.20;;
19095;SDS011;9680;52.520;13.332;2023-08-20T11:21:01;4.72;;;2.40;;
19095;SDS011;9680;52.520;13.332;2023-08-20T11:23:28;3.55;;;2.38;;
19095;SDS011;9680;52.520;13.332;2023-08-20T11:25:55;3.35;;;2.20;;
19095;SDS011;9680;52.520;13.332;2023-08-20T11:28:22;3.15;;;2.03;;
19095;SDS011;9680;52.520;13.332;2023-08-20T11:30:49;3.83;;;2.03;;
19095;SDS011;9680;52.520;13.332;2023-08-20T11:33:16;2.83;;;2.17;;
19095;SDS011;9680;52.520;13.332;2023-08-20T11:35:44;3.53;;;2.15;;
19095;SDS011;9680;52.520;13.332;2023-08-20T11:38:11;3.22;;;2.00;;
19095;SDS011;9680;52.520;13.332;2023-08-20T11:40:38;2.92;;;1.90;;
19095;SDS011;9680;52.520;13.332;2023-08-20T11:43:05;3.65;;;2.10;;
19095;SDS011;9680;52.520;13.332;2023-08-20T11:45:33;4.25;;;2.40;;
19095;SDS011;9680;52.520;13.332;2023-08-20T11:48:09;3.42;;;2.10;;
19095;SDS011;9680;52.520;13.332;2023-08-20T11:50:36;3.33;;;2.13;;
19095;SDS011;9680;52.520;13.332;2023-08-20T11:53:05;5.60;;;2.85;;
19095;SDS011;9680;52.520;13.332;2023-08-20T11:55:31;6.85;;;2.38;;
19095;SDS011;9680;52.520;13.332;2023-08-20T11:57:58;5.78;;;2.33;;
19095;SDS011;9680;52.520;13.332;2023-08-20T12:00:25;3.15;;;2.40;;
19095;SDS011;9680;52.520;13.332;2023-08-20T12:02:53;4.38;;;2.25;;
19095;SDS011;9680;52.520;13.332;2023-08-20T12:05:21;2.95;;;2.08;;
19095;SDS011;9680;52.520;13.332;2023-08-20T12:07:55;4.10;;;2.40;;
19095;SDS011;9680;52.520;13.332;2023-08-20T12:10:24;5.32;;;2.30;;
19095;SDS011;9680;52.520;13.332;2023-08-20T12:12:52;4.30;;;2.20;;
19095;SDS011;9680;52.520;13.332;2023-08-20T12:15:20;17.25;;;2.25;;
19095;SDS011;9680;52.520;13.332;2023-08-20T12:17:56;3.10;;;2.10;;
19095;SDS011;9680;52.520;13.332;2023-08-20T12:20:26;2.58;;;1.90;;
19095;SDS011;9680;52.520;13.332;2023-08-20T12:22:53;3.40;;;1.75;;
19095;SDS011;9680;52.520;13.332;2023-08-20T12:25:20;2.55;;;1.90;;
19095;SDS011;9680;52.520;13.332;2023-08-20T12:27:48;4.03;;;1.88;;
19095;SDS011;9680;52.520;13.332;2023-08-20T12:30:15;2.97;;;1.85;;
19095;SDS011;9680;52.520;13.332;2023-08-20T12:32:42;4.88;;;1.70;;
19095;SDS011;9680;52.520;13.332;2023-08-20T12:35:08;3.90;;;2.05;;
19095;SDS011;9680;52.520;13.332;2023-08-20T12:37:35;3.95;;;2.10;;
19095;SDS011;9680;52.520;13.332;2023-08-20T12:40:02;5.13;;;2.00;;
19095;SDS011;9680;52.520;13.332;2023-08-20T12:42:33;4.85;;;1.77;;
19095;SDS011;9680;52.520;13.332;2023-08-20T12:45:02;2.92;;;1.88;;
19095;SDS011;9680;52.520;13.332;2023-08-20T12:47:29;6.00;;;2.03;;
19095;SDS011;9680;52.520;13.332;2023-08-20T12:49:55;3.22;;;1.80;;
19095;SDS011;9680;52.520;13.332;2023-08-20T12:52:22;3.40;;;1.80;;
19095;SDS011;9680;52.520;13.332;2023-08-20T12:54:49;5.90;;;2.08;;
19095;SDS011;9680;52.520;13.332;2023-08-20T12:57:15;3.15;;;1.63;;
19095;SDS011;9680;52.520;13.332;2023-08-20T12:59:42;2.13;;;1.50;;
19095;SDS011;9680;52.520;13.332;2023-08-20T13:02:10;2.97;;;1.60;;
19095;SDS011;9680;52.520;13.332;2023-08-20T13:04:37;3.97;;;1.60;;
19095;SDS011;9680;52.520;13.332;2023-08-20T13:07:05;3.28;;;1.67;;
19095;SDS011;9680;52.520;13.332;2023-08-20T13:09:33;1.88;;;1.23;;
19095;SDS011;9680;52.520;13.332;2023-08-20T13:12:00;2.67;;;1.50;;
19095;SDS011;9680;52.520;13.332;2023-08-20T13:14:29;1.90;;;1.50;;
19095;SDS011;9680;52.520;13.332;2023-08-20T13:16:56;2.60;;;1.45;;
19095;SDS011;9680;52.520;13.332;2023-08-20T13:19:24;3.38;;;1.20;;
19095;SDS011;9680;52.520;13.332;2023-08-20T13:21:51;1.95;;;1.40;;
19095;SDS011;9680;52.520;13.332;2023-08-20T13:24:18;3.78;;;1.42;;
19095;SDS011;9680;52.520;13.332;2023-08-20T13:26:44;3.72;;;1.40;;
19095;SDS011;9680;52.520;13.332;2023-08-20T13:29:11;2.88;;;1.30;;
19095;SDS011;9680;52.520;13.332;2023-08-20T13:31:38;2.67;;;1.25;;
19095;SDS011;9680;52.520;13.332;2023-08-20T13:34:04;1.75;;;1.27;;
19095;SDS011;9680;52.520;13.332;2023-08-20T13:36:32;3.78;;;1.27;;
19095;SDS011;9680;52.520;13.332;2023-08-20T13:38:59;2.40;;;1.40;;
19095;SDS011;9680;52.520;13.332;2023-08-20T13:41:25;1.58;;;1.13;;
19095;SDS011;9680;52.520;13.332;2023-08-20T13:43:52;3.22;;;1.38;;
19095;SDS011;9680;52.520;13.332;2023-08-20T13:46:19;2.80;;;1.52;;
19095;SDS011;9680;52.520;13.332;2023-08-20T13:48:46;2.00;;;1.50;;
19095;SDS011;9680;52.520;13.332;2023-08-20T13:51:12;2.30;;;1.60;;
19095;SDS011;9680;52.520;13.332;2023-08-20T13:53:42;2.88;;;1.75;;
19095;SDS011;9680;52.520;13.332;2023-08-20T13:56:09;3.72;;;1.50;;
19095;SDS011;9680;52.520;13.332;2023-08-20T13:58:36;3.65;;;1.42;;
19095;SDS011;9680;52.520;13.332;2023-08-20T14:01:03;3.25;;;1.60;;
19095;SDS011;9680;52.520;13.332;2023-08-20T14:03:31;2.30;;;1.25;;
19095;SDS011;9680;52.520;13.332;2023-08-20T14:05:57;2.13;;;1.08;;
19095;SDS011;9680;52.520;13.332;2023-08-20T14:08:24;3.28;;;1.55;;
19095;SDS011;9680;52.520;13.332;2023-08-20T14:10:52;2.30;;;1.30;;
19095;SDS011;9680;52.520;13.332;2023-08-20T14:13:19;2.03;;;1.10;;
19095;SDS011;9680;52.520;13.332;2023-08-20T14:15:45;3.05;;;1.00;;
19095;SDS011;9680;52.520;13.332;2023-08-20T14:18:12;3.95;;;1.13;;
19095;SDS011;9680;52.520;13.332;2023-08-20T14:20:39;2.03;;;1.00;;
19095;SDS011;9680;52.520;13.332;2023-08-20T14:23:06;2.40;;;1.00;;
19095;SDS011;9680;52.520;13.332;2023-08-20T14:25:32;2.45;;;1.00;;
19095;SDS011;9680;52.520;13.332;2023-08-20T14:28:01;2.03;;;1.13;;
19095;SDS011;9680;52.520;13.332;2023-08-20T14:30:27;2.40;;;1.10;;
19095;SDS011;9680;52.520;13.332;2023-08-20T14:32:54;2.70;;;1.38;;
19095;SDS011;9680;52.520;13.332;2023-08-20T14:35:21;2.35;;;1.10;;
19095;SDS011;9680;52.520;13.332;2023-08-20T14:37:47;2.53;;;1.27;;
19095;SDS011;9680;52.520;13.332;2023-08-20T14:40:14;1.00;;;0.88;;
19095;SDS011;9680;52.520;13.332;2023-08-20T14:42:41;2.03;;;1.10;;